createdAt,value
2017-12-31T00:00:28.057Z,76.02
2017-12-31T00:02:59.772Z,76.51
2017-12-31T00:05:31.396Z,76.32
2017-12-31T00:08:02.149Z,76.56
2017-12-31T00:10:32.318Z,76.21
2017-12-31T00:13:03.832Z,76.67
2017-12-31T00:15:35.977Z,76.56
2017-12-31T00:18:08.807Z,76.48
2017-12-31T00:20:40.696Z,76.75
2017-12-31T00:23:12.780Z,76.56
2017-12-31T00:25:47.044Z,76.16
2017-12-31T00:28:17.329Z,75.83
2017-12-31T00:30:49.823Z,75.82
2017-12-31T00:33:22.391Z,76.12
2017-12-31T00:35:58.957Z,75.86
2017-12-31T00:38:36.021Z,75.74
2017-12-31T00:41:07.970Z,76.27
2017-12-31T00:43:40.702Z,76.15
2017-12-31T00:46:11.184Z,76.05
2017-12-31T00:48:41.829Z,76.74
2017-12-31T00:51:11.966Z,76.41
2017-12-31T00:53:42.762Z,76.55
2017-12-31T00:56:13.106Z,76.54
2017-12-31T00:58:43.395Z,76.42
2017-12-31T01:01:14.088Z,76.59
2017-12-31T01:03:44.474Z,76.39
2017-12-31T01:06:16.612Z,76.59
2017-12-31T01:08:46.624Z,76.62
2017-12-31T01:11:17.117Z,76.78
2017-12-31T01:13:47.062Z,76.70
2017-12-31T01:16:16.965Z,76.82
2017-12-31T01:18:47.516Z,77.03
2017-12-31T01:21:17.767Z,76.96
2017-12-31T01:23:47.696Z,76.98
2017-12-31T01:26:18.340Z,77.23
2017-12-31T01:28:49.100Z,77.85
2017-12-31T01:31:18.949Z,77.85
2017-12-31T01:33:48.925Z,78.09
2017-12-31T01:36:19.843Z,78.43
2017-12-31T01:38:51.037Z,77.96
2017-12-31T01:41:21.103Z,78.35
2017-12-31T01:43:51.435Z,78.67
2017-12-31T01:46:21.800Z,78.75
2017-12-31T01:49:00.976Z,78.37
2017-12-31T01:51:31.714Z,78.48
2017-12-31T01:54:01.661Z,78.29
2017-12-31T01:56:31.395Z,78.56
2017-12-31T01:59:01.142Z,78.41
2017-12-31T02:01:31.791Z,78.38
2017-12-31T02:04:02.262Z,78.66
2017-12-31T02:06:35.540Z,78.42
2017-12-31T02:09:06.408Z,78.10
2017-12-31T02:11:36.836Z,78.24
2017-12-31T02:14:07.516Z,78.88
2017-12-31T02:16:38.168Z,79.22
2017-12-31T02:19:09.556Z,79.05
2017-12-31T02:21:39.730Z,79.16
2017-12-31T02:24:09.250Z,79.31
2017-12-31T02:26:39.203Z,79.78
2017-12-31T02:29:08.966Z,79.67
2017-12-31T02:31:39.444Z,79.32
2017-12-31T02:34:09.342Z,79.68
2017-12-31T02:36:39.412Z,79.74
2017-12-31T02:39:09.544Z,80.16
2017-12-31T02:41:39.361Z,80.40
2017-12-31T02:44:08.874Z,80.74
2017-12-31T02:46:39.122Z,80.72
2017-12-31T02:49:09.601Z,81.82
2017-12-31T02:51:39.741Z,81.95
2017-12-31T02:54:09.453Z,81.97
2017-12-31T02:56:40.606Z,82.42
2017-12-31T02:59:13.075Z,82.45
2017-12-31T03:01:43.260Z,82.30
2017-12-31T03:04:14.354Z,82.63
2017-12-31T03:06:44.420Z,82.89
2017-12-31T03:09:14.832Z,82.93
2017-12-31T03:11:44.477Z,82.46
2017-12-31T03:14:13.983Z,82.61
2017-12-31T03:16:44.877Z,82.64
2017-12-31T03:19:14.347Z,82.60
2017-12-31T03:21:45.856Z,82.55
2017-12-31T03:24:15.525Z,82.41
2017-12-31T03:26:45.395Z,82.93
2017-12-31T03:29:15.875Z,82.80
2017-12-31T03:31:46.046Z,83.09
2017-12-31T03:34:16.385Z,83.97
2017-12-31T03:36:46.403Z,84.93
2017-12-31T03:39:16.612Z,84.43
2017-12-31T03:41:46.311Z,83.83
2017-12-31T03:44:16.518Z,83.79
2017-12-31T03:46:46.400Z,83.94
2017-12-31T03:49:16.082Z,84.27
2017-12-31T03:51:46.141Z,83.96
2017-12-31T03:54:16.077Z,84.96
2017-12-31T03:56:45.804Z,84.66
2017-12-31T03:59:16.163Z,86.06
2017-12-31T04:01:45.994Z,85.25
2017-12-31T04:04:15.612Z,86.03
2017-12-31T04:06:45.258Z,86.51
2017-12-31T04:09:15.181Z,86.35
2017-12-31T04:11:50.049Z,87.05
2017-12-31T04:14:20.023Z,87.17
2017-12-31T04:16:49.674Z,86.41
2017-12-31T04:19:19.693Z,87.78
2017-12-31T04:21:49.481Z,87.27
2017-12-31T04:24:19.257Z,87.50
2017-12-31T04:26:49.099Z,88.19
2017-12-31T04:29:18.736Z,87.89
2017-12-31T04:31:48.682Z,88.27
2017-12-31T04:34:18.106Z,88.34
2017-12-31T04:36:47.798Z,88.46
2017-12-31T04:39:18.000Z,89.11
2017-12-31T04:41:48.179Z,88.66
2017-12-31T04:44:17.910Z,88.67
2017-12-31T04:46:47.980Z,89.38
2017-12-31T04:49:17.759Z,88.57
2017-12-31T04:51:47.426Z,88.15
2017-12-31T04:54:17.319Z,87.36
2017-12-31T04:56:47.124Z,87.41
2017-12-31T04:59:16.768Z,88.97
2017-12-31T05:01:47.187Z,88.09
2017-12-31T05:04:17.109Z,87.21
2017-12-31T05:06:47.625Z,88.13
2017-12-31T05:09:17.545Z,88.71
2017-12-31T05:11:47.549Z,88.24
2017-12-31T05:14:17.785Z,88.16
2017-12-31T05:16:47.692Z,87.32
2017-12-31T05:19:17.085Z,87.64
2017-12-31T05:21:47.306Z,89.43
2017-12-31T05:24:17.056Z,88.43
2017-12-31T05:26:47.140Z,87.87
2017-12-31T05:29:17.186Z,89.05
2017-12-31T05:31:46.848Z,89.45
2017-12-31T05:34:16.765Z,89.63
2017-12-31T05:36:46.957Z,89.63
2017-12-31T05:39:16.631Z,90.16
2017-12-31T05:41:46.409Z,90.33
2017-12-31T05:44:16.345Z,90.38
2017-12-31T05:46:46.067Z,90.07
2017-12-31T05:49:15.902Z,90.53
2017-12-31T05:51:45.497Z,90.59
2017-12-31T05:54:15.102Z,90.14
2017-12-31T05:56:44.710Z,90.05
2017-12-31T05:59:15.249Z,90.49
2017-12-31T06:01:45.000Z,90.87
2017-12-31T06:04:14.573Z,90.56
2017-12-31T06:06:44.700Z,90.77
2017-12-31T06:09:14.302Z,91.29
2017-12-31T06:11:46.072Z,91.32
2017-12-31T06:14:17.455Z,91.20
2017-12-31T06:16:48.898Z,91.86
2017-12-31T06:19:18.752Z,91.94
2017-12-31T06:21:48.583Z,92.39
2017-12-31T06:24:18.311Z,92.32
2017-12-31T06:26:48.156Z,92.71
2017-12-31T06:29:17.905Z,92.18
2017-12-31T06:31:48.044Z,92.66
2017-12-31T06:34:17.438Z,92.33
2017-12-31T06:36:47.124Z,92.45
2017-12-31T06:39:17.019Z,92.42
2017-12-31T06:41:46.856Z,92.94
2017-12-31T06:44:19.589Z,93.05
2017-12-31T06:46:49.110Z,92.69
2017-12-31T06:49:18.511Z,92.39
2017-12-31T06:51:49.899Z,92.34
2017-12-31T06:54:19.339Z,92.52
2017-12-31T06:56:49.300Z,92.28
2017-12-31T06:59:19.277Z,93.15
2017-12-31T07:01:49.077Z,93.08
2017-12-31T07:04:18.898Z,93.06
2017-12-31T07:06:48.481Z,92.88
2017-12-31T07:09:18.093Z,93.86
2017-12-31T07:11:48.578Z,92.84
2017-12-31T07:14:18.660Z,92.43
2017-12-31T07:16:48.718Z,92.07
2017-12-31T07:19:18.390Z,91.83
2017-12-31T07:21:48.215Z,92.43
2017-12-31T07:24:17.981Z,91.89
2017-12-31T07:26:50.644Z,91.29
2017-12-31T07:29:20.417Z,90.92
2017-12-31T07:31:50.270Z,90.96
2017-12-31T07:34:22.919Z,90.79
2017-12-31T07:36:54.749Z,89.81
2017-12-31T07:39:24.984Z,89.52
2017-12-31T07:41:55.602Z,89.42
2017-12-31T07:44:25.244Z,89.27
2017-12-31T07:46:54.839Z,89.40
2017-12-31T07:49:25.445Z,89.52
2017-12-31T07:51:58.154Z,89.22
2017-12-31T07:54:28.958Z,88.91
2017-12-31T07:56:58.970Z,88.43
2017-12-31T07:59:28.831Z,88.29
2017-12-31T08:01:58.279Z,88.21
2017-12-31T08:04:28.421Z,87.75
2017-12-31T08:07:03.800Z,87.37
2017-12-31T08:09:36.108Z,86.92
2017-12-31T08:12:05.883Z,86.59
2017-12-31T08:14:35.611Z,86.40
2017-12-31T08:17:07.651Z,86.48
2017-12-31T08:19:40.035Z,85.72
2017-12-31T08:22:14.009Z,85.87
2017-12-31T08:24:47.843Z,85.95
2017-12-31T08:27:20.407Z,86.06
2017-12-31T08:29:50.597Z,86.39
2017-12-31T08:32:20.896Z,86.39
2017-12-31T08:34:51.335Z,86.28
2017-12-31T08:37:21.377Z,86.29
2017-12-31T08:39:53.896Z,85.96
2017-12-31T08:42:32.926Z,86.25
2017-12-31T08:45:05.706Z,85.54
2017-12-31T08:47:37.462Z,85.15
2017-12-31T08:50:13.649Z,85.06
2017-12-31T08:52:47.631Z,84.68
2017-12-31T08:55:22.874Z,84.54
2017-12-31T08:57:55.176Z,84.35
2017-12-31T09:00:33.702Z,83.72
2017-12-31T09:03:03.749Z,83.36
2017-12-31T09:05:34.166Z,83.23
2017-12-31T09:08:04.714Z,82.89
2017-12-31T09:10:35.585Z,82.59
2017-12-31T09:13:07.678Z,82.45
2017-12-31T09:15:40.517Z,82.01
2017-12-31T09:18:14.090Z,81.68
2017-12-31T09:21:03.757Z,80.84
2017-12-31T09:23:35.352Z,81.05
2017-12-31T09:26:10.558Z,80.11
2017-12-31T09:28:45.568Z,79.85
2017-12-31T09:31:16.597Z,80.22
2017-12-31T09:34:05.062Z,79.49
2017-12-31T09:36:37.268Z,79.69
2017-12-31T09:39:12.280Z,79.64
2017-12-31T09:41:50.670Z,79.21
2017-12-31T09:50:16.007Z,78.11
2017-12-31T09:52:52.211Z,78.43
2017-12-31T09:58:06.501Z,78.17
2017-12-31T10:00:43.019Z,77.30
2017-12-31T10:03:18.515Z,77.35
2017-12-31T10:05:55.685Z,77.22
2017-12-31T10:08:31.980Z,76.81
2017-12-31T10:11:02.778Z,76.00
2017-12-31T10:13:34.960Z,76.31
2017-12-31T10:16:05.616Z,76.76
2017-12-31T10:21:42.811Z,75.94
2017-12-31T10:24:15.202Z,76.12
2017-12-31T10:26:47.076Z,76.11
2017-12-31T10:29:17.734Z,75.08
2017-12-31T10:31:50.406Z,74.86
2017-12-31T10:34:20.641Z,75.10
2017-12-31T10:37:04.036Z,73.56
2017-12-31T10:39:34.158Z,73.80
2017-12-31T10:42:12.928Z,73.36
2017-12-31T10:44:58.969Z,72.97
2017-12-31T10:47:48.145Z,71.99
2017-12-31T10:50:18.120Z,71.79
2017-12-31T10:52:50.730Z,71.46
2017-12-31T10:55:20.853Z,72.04
2017-12-31T10:57:56.071Z,71.10
2017-12-31T11:00:34.945Z,71.50
2017-12-31T11:03:12.622Z,71.25
2017-12-31T11:05:44.532Z,71.82
2017-12-31T11:08:14.633Z,72.15
2017-12-31T11:10:44.993Z,72.58
2017-12-31T11:13:17.342Z,72.66
2017-12-31T11:15:47.131Z,72.40
2017-12-31T11:18:19.470Z,72.57
2017-12-31T11:20:50.133Z,72.62
2017-12-31T11:23:19.607Z,72.08
2017-12-31T11:25:49.746Z,72.06
2017-12-31T11:28:19.437Z,72.67
2017-12-31T11:30:51.357Z,71.79
2017-12-31T11:33:22.103Z,72.67
2017-12-31T11:35:52.369Z,72.71
2017-12-31T11:38:27.020Z,71.97
2017-12-31T11:40:58.742Z,72.49
2017-12-31T11:43:28.551Z,72.82
2017-12-31T11:45:58.722Z,72.22
2017-12-31T11:48:28.665Z,72.39
2017-12-31T11:50:59.587Z,71.98
2017-12-31T11:53:34.328Z,72.47
2017-12-31T11:56:05.734Z,71.22
2017-12-31T11:58:35.958Z,70.98
2017-12-31T12:01:08.914Z,70.27
2017-12-31T12:03:39.002Z,70.20
2017-12-31T12:06:12.588Z,70.17
2017-12-31T12:08:42.775Z,70.58
2017-12-31T12:11:12.751Z,70.49
2017-12-31T12:13:43.105Z,70.21
2017-12-31T12:16:12.921Z,70.67
2017-12-31T12:18:44.198Z,70.53
2017-12-31T12:21:14.522Z,70.63
2017-12-31T12:23:44.183Z,70.59
2017-12-31T12:26:14.180Z,71.04
2017-12-31T12:28:44.079Z,70.90
2017-12-31T12:31:13.709Z,71.27
2017-12-31T12:33:45.159Z,70.85
2017-12-31T12:36:14.787Z,71.45
2017-12-31T12:38:45.349Z,71.36
2017-12-31T12:41:15.392Z,71.70
2017-12-31T12:43:45.224Z,72.02
2017-12-31T12:46:15.704Z,72.13
2017-12-31T12:48:47.695Z,72.03
2017-12-31T12:51:17.810Z,72.04
2017-12-31T12:53:47.685Z,72.02
2017-12-31T12:56:18.056Z,72.45
2017-12-31T12:58:50.771Z,72.36
2017-12-31T13:01:24.687Z,72.04
2017-12-31T13:03:56.832Z,72.54
2017-12-31T13:06:28.143Z,72.78
2017-12-31T13:08:59.198Z,72.96
2017-12-31T13:11:32.522Z,73.16
2017-12-31T13:14:04.955Z,73.74
2017-12-31T13:16:40.363Z,73.83
2017-12-31T13:19:10.337Z,74.16
2017-12-31T13:21:40.175Z,74.29
2017-12-31T13:24:10.114Z,74.66
2017-12-31T13:26:41.663Z,74.52
2017-12-31T13:29:12.286Z,74.80
2017-12-31T13:31:42.795Z,74.62
2017-12-31T13:34:12.605Z,75.60
2017-12-31T13:36:43.693Z,75.42
2017-12-31T13:39:14.506Z,75.76
2017-12-31T13:41:47.804Z,75.50
2017-12-31T13:44:18.865Z,75.73
2017-12-31T13:46:50.824Z,75.85
2017-12-31T13:49:22.373Z,75.87
2017-12-31T13:51:53.971Z,75.92
2017-12-31T13:54:24.453Z,75.77
2017-12-31T13:56:55.381Z,75.94
2017-12-31T13:59:26.334Z,76.29
2017-12-31T14:01:56.858Z,76.14
2017-12-31T14:04:26.353Z,76.29
2017-12-31T14:06:56.981Z,76.51
2017-12-31T14:09:29.911Z,76.45
2017-12-31T14:11:59.936Z,76.17
2017-12-31T14:14:30.353Z,76.38
2017-12-31T14:16:59.971Z,76.64
2017-12-31T14:19:30.505Z,76.17
2017-12-31T14:22:00.547Z,76.55
2017-12-31T14:24:30.303Z,76.39
2017-12-31T14:27:02.579Z,76.72
2017-12-31T14:29:36.014Z,76.59
2017-12-31T14:32:06.447Z,76.74
2017-12-31T14:34:36.921Z,76.96
2017-12-31T14:37:08.610Z,76.75
2017-12-31T14:39:39.169Z,77.01
2017-12-31T14:42:11.996Z,77.58
2017-12-31T14:44:43.645Z,77.83
2017-12-31T14:47:15.875Z,78.03
2017-12-31T14:49:48.012Z,77.84
2017-12-31T14:52:18.553Z,77.75
2017-12-31T14:54:49.494Z,78.07
2017-12-31T14:57:20.866Z,78.57
2017-12-31T14:59:51.574Z,78.20
2017-12-31T15:02:21.326Z,78.73
2017-12-31T15:04:52.012Z,78.63
2017-12-31T15:07:23.654Z,78.91
2017-12-31T15:09:54.518Z,78.76
2017-12-31T15:12:24.476Z,78.62
2017-12-31T15:14:54.299Z,78.78
2017-12-31T15:17:24.748Z,78.91
2017-12-31T15:19:55.228Z,79.30
2017-12-31T15:22:25.286Z,78.38
2017-12-31T15:24:55.060Z,78.97
2017-12-31T15:27:26.194Z,78.93
2017-12-31T15:29:58.626Z,78.58
2017-12-31T15:32:29.111Z,78.71
2017-12-31T15:34:59.004Z,78.71
2017-12-31T15:37:29.777Z,78.81
2017-12-31T15:40:00.601Z,78.90
2017-12-31T15:42:30.153Z,78.48
2017-12-31T15:45:00.612Z,78.28
2017-12-31T15:47:32.029Z,78.08
2017-12-31T15:50:02.012Z,78.30
2017-12-31T15:52:31.949Z,77.82
2017-12-31T15:55:02.888Z,78.07
2017-12-31T15:57:33.861Z,77.83
2017-12-31T16:00:05.021Z,77.69
2017-12-31T16:02:35.137Z,77.22
2017-12-31T16:05:07.095Z,77.20
2017-12-31T16:07:40.473Z,76.99
2017-12-31T16:10:10.756Z,76.92
2017-12-31T16:12:40.935Z,76.41
2017-12-31T16:15:11.452Z,76.67
2017-12-31T16:17:42.513Z,76.79
2017-12-31T16:20:15.305Z,76.76
2017-12-31T16:22:46.287Z,76.95
2017-12-31T16:25:17.269Z,76.77
2017-12-31T16:27:47.571Z,76.60
2017-12-31T16:30:17.531Z,76.52
2017-12-31T16:32:53.106Z,76.44
2017-12-31T16:35:24.119Z,76.39
2017-12-31T16:37:54.312Z,76.71
2017-12-31T16:40:23.992Z,76.64
2017-12-31T16:42:54.193Z,76.36
2017-12-31T16:45:24.390Z,76.46
2017-12-31T16:47:54.940Z,76.21
2017-12-31T16:50:24.485Z,76.34
2017-12-31T16:52:54.220Z,76.41
2017-12-31T16:55:24.555Z,76.12
2017-12-31T16:57:54.925Z,76.18
2017-12-31T17:00:25.268Z,75.82
2017-12-31T17:02:55.249Z,75.90
2017-12-31T17:05:26.799Z,75.39
2017-12-31T17:07:57.164Z,75.71
2017-12-31T17:10:27.413Z,75.10
2017-12-31T17:12:57.529Z,75.69
2017-12-31T17:15:27.548Z,75.81
2017-12-31T17:17:57.291Z,75.74
2017-12-31T17:20:28.646Z,75.07
2017-12-31T17:22:58.636Z,75.55
2017-12-31T17:25:30.570Z,75.28
2017-12-31T17:28:00.559Z,75.71
2017-12-31T17:30:31.277Z,75.62
2017-12-31T17:33:05.827Z,75.73
2017-12-31T17:35:36.831Z,75.61
2017-12-31T17:38:10.576Z,76.00
2017-12-31T17:40:41.504Z,76.05
2017-12-31T17:43:12.601Z,76.12
2017-12-31T17:45:43.142Z,75.93
2017-12-31T17:48:14.644Z,75.99
2017-12-31T17:50:44.480Z,75.94
2017-12-31T17:53:15.123Z,75.95
2017-12-31T17:55:45.279Z,76.03
2017-12-31T17:58:14.802Z,75.31
2017-12-31T18:00:44.824Z,75.53
2017-12-31T18:03:17.870Z,75.47
2017-12-31T18:05:50.781Z,75.73
2017-12-31T18:08:27.757Z,75.71
2017-12-31T18:11:10.518Z,75.79
2017-12-31T18:13:47.986Z,75.85
2017-12-31T18:16:19.446Z,75.81
2017-12-31T18:18:51.286Z,75.95
2017-12-31T18:21:23.304Z,76.00
2017-12-31T18:23:57.573Z,75.95
2017-12-31T18:26:32.787Z,75.78
2017-12-31T18:29:23.377Z,75.90
2017-12-31T18:31:55.337Z,75.91
2017-12-31T18:34:26.865Z,75.63
2017-12-31T18:37:00.816Z,75.57
2017-12-31T18:39:46.472Z,75.19
2017-12-31T18:42:17.051Z,75.63
2017-12-31T18:44:52.616Z,75.47
2017-12-31T18:47:26.787Z,75.52
2017-12-31T18:50:06.746Z,75.27
2017-12-31T18:52:36.574Z,75.29
2017-12-31T18:55:25.591Z,75.59
2017-12-31T18:57:57.074Z,75.49
2017-12-31T19:00:27.907Z,75.25
2017-12-31T19:03:12.442Z,74.96
2017-12-31T19:05:53.376Z,75.25
2017-12-31T19:09:26.284Z,74.89
2017-12-31T19:11:56.304Z,74.73
2017-12-31T19:14:28.273Z,74.85
2017-12-31T19:16:58.343Z,74.46
2017-12-31T19:19:30.210Z,74.72
2017-12-31T19:22:03.157Z,74.80
2017-12-31T19:24:37.773Z,74.63
2017-12-31T19:27:12.048Z,74.64
2017-12-31T19:29:42.955Z,74.90
2017-12-31T19:32:13.028Z,74.90
2017-12-31T19:35:16.967Z,74.91
2017-12-31T19:37:51.966Z,74.89
2017-12-31T19:40:26.914Z,75.03
2017-12-31T19:42:58.347Z,74.96
2017-12-31T19:45:29.754Z,74.63
2017-12-31T19:48:00.124Z,74.75
2017-12-31T19:50:29.946Z,74.66
2017-12-31T19:52:59.469Z,74.57
2017-12-31T19:55:29.253Z,74.05
2017-12-31T19:57:58.888Z,74.50
2017-12-31T20:00:28.673Z,74.62
2017-12-31T20:02:58.547Z,74.51
2017-12-31T20:05:28.136Z,74.23
2017-12-31T20:07:57.848Z,74.35
2017-12-31T20:10:27.626Z,74.41
2017-12-31T20:12:57.631Z,74.27
2017-12-31T20:15:33.276Z,74.29
2017-12-31T20:18:02.870Z,74.44
2017-12-31T20:20:32.433Z,74.32
2017-12-31T20:23:02.070Z,74.59
2017-12-31T20:25:31.910Z,74.72
2017-12-31T20:28:04.889Z,74.39
2017-12-31T20:30:35.184Z,74.51
2017-12-31T20:33:05.527Z,74.19
2017-12-31T20:35:35.126Z,74.13
2017-12-31T20:38:05.967Z,73.59
2017-12-31T20:40:36.942Z,73.21
2017-12-31T20:43:07.071Z,73.27
2017-12-31T20:45:39.225Z,72.93
2017-12-31T20:48:10.317Z,73.35
2017-12-31T20:50:40.034Z,72.95
2017-12-31T20:53:10.361Z,72.70
2017-12-31T20:55:41.783Z,72.32
2017-12-31T20:58:11.956Z,71.66
2017-12-31T21:00:42.170Z,72.08
2017-12-31T21:03:12.796Z,72.12
2017-12-31T21:05:44.420Z,71.20
2017-12-31T21:08:16.049Z,71.81
2017-12-31T21:10:47.412Z,71.34
2017-12-31T21:13:17.509Z,70.97
2017-12-31T21:15:48.556Z,71.44
2017-12-31T21:18:18.481Z,70.63
2017-12-31T21:20:48.290Z,70.93
2017-12-31T21:23:19.154Z,70.28
2017-12-31T21:25:48.916Z,70.32
2017-12-31T21:28:20.086Z,70.58
2017-12-31T21:30:50.499Z,70.46
2017-12-31T21:33:23.363Z,70.45
2017-12-31T21:35:53.597Z,70.19
2017-12-31T21:38:24.269Z,70.27
2017-12-31T21:40:54.906Z,70.07
2017-12-31T21:43:25.664Z,70.44
2017-12-31T21:45:57.060Z,70.28
2017-12-31T21:48:28.444Z,69.75
2017-12-31T21:50:58.375Z,69.32
2017-12-31T21:53:28.382Z,69.31
2017-12-31T21:55:59.712Z,69.37
2017-12-31T21:58:30.015Z,69.19
2017-12-31T22:01:01.004Z,68.88
2017-12-31T22:03:31.817Z,68.53
2017-12-31T22:06:04.362Z,68.83
2017-12-31T22:08:37.749Z,68.64
2017-12-31T22:11:08.439Z,68.30
2017-12-31T22:13:40.211Z,68.50
2017-12-31T22:16:10.021Z,68.52
2017-12-31T22:18:39.778Z,68.58
2017-12-31T22:21:10.160Z,68.04
2017-12-31T22:23:42.408Z,68.09
2017-12-31T22:26:13.582Z,68.33
2017-12-31T22:28:45.453Z,68.50
2017-12-31T22:31:17.585Z,68.26
2017-12-31T22:33:49.410Z,67.75
2017-12-31T22:36:22.036Z,67.74
2017-12-31T22:38:52.627Z,67.58
2017-12-31T22:41:22.675Z,67.73
2017-12-31T22:43:54.344Z,67.95
2017-12-31T22:46:25.486Z,67.51
2017-12-31T22:48:57.574Z,67.78
2017-12-31T22:51:27.805Z,68.01
2017-12-31T22:53:58.375Z,67.87
2017-12-31T22:56:28.796Z,68.00
2017-12-31T22:58:59.222Z,67.79
2017-12-31T23:01:29.888Z,67.32
2017-12-31T23:04:02.208Z,67.51
2017-12-31T23:06:33.330Z,67.04
2017-12-31T23:09:05.467Z,66.80
2017-12-31T23:11:37.087Z,66.79
2017-12-31T23:14:07.917Z,66.25
2017-12-31T23:16:39.534Z,66.65
2017-12-31T23:19:10.657Z,66.63
2017-12-31T23:21:42.190Z,66.56
2017-12-31T23:24:13.114Z,66.63
2017-12-31T23:26:45.557Z,66.59
2017-12-31T23:29:16.706Z,66.30
2017-12-31T23:31:50.204Z,66.38
2017-12-31T23:34:23.132Z,66.22
2017-12-31T23:36:56.645Z,66.16
2017-12-31T23:39:28.934Z,66.01
2017-12-31T23:42:05.835Z,66.44
2017-12-31T23:44:38.270Z,66.38
2017-12-31T23:47:11.474Z,66.47
2017-12-31T23:49:42.976Z,66.10
2017-12-31T23:52:13.846Z,66.28
2017-12-31T23:54:45.103Z,66.44
2017-12-31T23:57:16.102Z,66.44
2017-12-31T23:59:46.396Z,66.50
